Time;durP1;ratioP1;P1;durP2;ratioP2;P2;SDS_P1;SDS_P2;PMS_P1;PMS_P2;Temp;Humidity;BMP_temperature;BMP_pressure;BME280_temperature;BME280_humidity;BME280_pressure;Samples;Min_cycle;Max_cycle;Signal;HPM_P1;HPM_P2
2022/03/10 00:00:51;;;;;;;14.77;9.57;;;2.10;99.70;;;;;;5053314;28;20248;-52
2022/03/10 00:03:20;;;;;;;13.87;9.60;;;2.10;99.80;;;;;;5051765;28;20739;-52
2022/03/10 00:05:48;;;;;;;18.63;12.27;;;2.10;99.90;;;;;;5053473;28;20642;-52
2022/03/10 00:08:16;;;;;;;14.83;9.23;;;2.00;99.90;;;;;;5058670;28;20667;-52
2022/03/10 00:10:44;;;;;;;14.07;8.97;;;2.00;99.90;;;;;;5073016;28;20205;-52
2022/03/10 00:13:13;;;;;;;11.97;8.67;;;2.00;99.80;;;;;;5070664;28;20244;-52
2022/03/10 00:15:41;;;;;;;13.73;10.07;;;1.90;99.90;;;;;;5072717;28;20246;-51
2022/03/10 00:18:10;;;;;;;13.27;9.80;;;1.90;99.90;;;;;;5072717;28;20215;-52
2022/03/10 00:20:38;;;;;;;16.80;9.90;;;1.80;99.90;;;;;;5072734;28;20259;-52
2022/03/10 00:23:06;;;;;;;14.17;8.43;;;1.80;99.90;;;;;;5072380;28;20703;-52
2022/03/10 00:25:34;;;;;;;18.00;9.00;;;1.80;99.90;;;;;;5072093;28;20227;-53
2022/03/10 00:28:02;;;;;;;12.93;9.03;;;1.80;99.90;;;;;;5072685;28;20676;-52
2022/03/10 00:30:32;;;;;;;12.67;9.20;;;1.80;99.90;;;;;;5072347;28;20202;-52
2022/03/10 00:33:00;;;;;;;12.57;9.47;;;1.80;99.90;;;;;;5071936;28;20229;-52
2022/03/10 00:35:28;;;;;;;16.73;9.23;;;1.80;99.90;;;;;;5072202;28;20232;-52
2022/03/10 00:37:58;;;;;;;13.67;9.07;;;1.70;99.90;;;;;;5072521;28;20208;-52
2022/03/10 00:40:27;;;;;;;17.27;9.37;;;1.70;99.90;;;;;;5072328;28;20257;-52
2022/03/10 00:42:55;;;;;;;11.90;9.03;;;1.70;99.90;;;;;;5071687;28;20293;-51
2022/03/10 00:45:25;;;;;;;12.80;9.00;;;1.70;99.90;;;;;;5071371;28;20292;-52
2022/03/10 00:47:55;;;;;;;12.80;8.57;;;1.70;99.90;;;;;;5071905;28;20292;-52
2022/03/10 00:50:24;;;;;;;13.37;8.43;;;1.70;99.90;;;;;;5072315;28;20196;-52
2022/03/10 00:52:52;;;;;;;13.77;8.77;;;1.70;99.90;;;;;;5055950;28;20669;-51
2022/03/10 00:55:20;;;;;;;11.93;8.63;;;1.70;99.90;;;;;;5051965;28;20280;-52
2022/03/10 00:57:49;;;;;;;13.27;8.50;;;1.70;99.90;;;;;;5052556;28;20207;-51
2022/03/10 01:00:19;;;;;;;13.83;9.03;;;1.70;99.90;;;;;;5051647;28;20258;-52
2022/03/10 01:02:47;;;;;;;12.30;9.17;;;1.70;99.90;;;;;;5051105;28;20232;-51
2022/03/10 01:05:16;;;;;;;11.67;8.80;;;1.70;99.90;;;;;;5051141;28;20242;-51
2022/03/10 01:07:45;;;;;;;11.57;8.63;;;1.80;99.90;;;;;;5040103;28;20206;-51
2022/03/10 01:10:14;;;;;;;13.57;8.80;;;1.70;99.90;;;;;;5072067;28;20240;-52
2022/03/10 01:12:45;;;;;;;13.40;9.03;;;1.70;99.90;;;;;;5071858;28;20258;-52
2022/03/10 01:15:15;;;;;;;13.83;8.53;;;1.60;99.90;;;;;;5070051;28;20234;-52
2022/03/10 01:17:43;;;;;;;13.37;8.73;;;1.60;99.90;;;;;;5071868;28;20205;-52
2022/03/10 01:20:17;;;;;;;12.87;8.67;;;1.50;99.90;;;;;;5071712;28;20276;-56
2022/03/10 01:22:45;;;;;;;12.17;8.63;;;1.50;99.90;;;;;;5071266;28;20279;-52
2022/03/10 01:25:17;;;;;;;10.33;8.13;;;1.40;99.90;;;;;;5071678;28;20224;-52
2022/03/10 01:27:46;;;;;;;12.50;8.50;;;1.40;99.90;;;;;;5067826;28;20203;-52
2022/03/10 01:30:15;;;;;;;13.00;8.47;;;1.40;99.90;;;;;;5051841;28;20235;-52
2022/03/10 01:32:44;;;;;;;12.43;9.43;;;1.40;99.90;;;;;;5050709;28;20205;-52
2022/03/10 01:35:12;;;;;;;13.37;9.00;;;1.30;99.90;;;;;;5051789;28;20262;-52
2022/03/10 01:37:42;;;;;;;13.87;9.13;;;1.30;99.90;;;;;;5051802;28;20214;-52
2022/03/10 01:40:13;;;;;;;14.00;8.67;;;1.30;99.90;;;;;;5051208;28;20265;-51
2022/03/10 01:42:41;;;;;;;14.03;8.70;;;1.30;99.90;;;;;;5050874;28;20351;-52
2022/03/10 01:45:10;;;;;;;14.30;8.50;;;1.40;99.90;;;;;;5050892;28;20232;-52
2022/03/10 01:47:39;;;;;;;13.17;8.80;;;1.30;99.90;;;;;;5051318;28;20268;-52
2022/03/10 01:50:09;;;;;;;13.60;8.97;;;1.30;99.90;;;;;;5050859;28;20254;-52
2022/03/10 01:52:37;;;;;;;13.67;9.27;;;1.30;99.90;;;;;;5050660;28;20207;-51
2022/03/10 01:55:08;;;;;;;12.47;8.63;;;1.30;99.90;;;;;;5050565;28;20233;-52
2022/03/10 01:57:36;;;;;;;12.27;8.47;;;1.30;99.90;;;;;;5050526;28;20272;-52
2022/03/10 02:00:06;;;;;;;14.07;9.37;;;1.20;99.90;;;;;;5051128;28;20682;-52
2022/03/10 02:02:34;;;;;;;13.70;9.33;;;1.20;99.90;;;;;;5050216;28;20756;-52
2022/03/10 02:05:02;;;;;;;11.93;8.60;;;1.20;99.90;;;;;;5050601;28;20229;-52
2022/03/10 02:10:17;;;;;;;13.83;9.07;;;1.20;99.90;;;;;;5050663;28;20248;-52
2022/03/10 02:12:47;;;;;;;12.60;8.93;;;1.20;99.90;;;;;;5067340;28;20215;-52
2022/03/10 02:18:04;;;;;;;13.17;8.60;;;1.20;99.90;;;;;;5070439;28;20220;-52
2022/03/10 02:20:33;;;;;;;14.33;9.20;;;1.20;99.90;;;;;;5070988;28;20257;-52
2022/03/10 02:23:02;;;;;;;14.67;9.10;;;1.20;99.90;;;;;;5070429;28;20280;-52
2022/03/10 02:25:30;;;;;;;14.23;9.50;;;1.20;99.90;;;;;;5070380;28;20253;-52
2022/03/10 02:27:59;;;;;;;15.03;9.17;;;1.20;99.90;;;;;;5065390;28;20249;-53
2022/03/10 02:30:30;;;;;;;17.70;8.87;;;1.20;99.90;;;;;;5050505;28;20267;-52
2022/03/10 02:32:59;;;;;;;13.63;9.17;;;1.20;99.90;;;;;;5050147;28;20237;-52
2022/03/10 02:35:27;;;;;;;15.90;9.20;;;1.20;99.90;;;;;;5049794;28;20298;-52
2022/03/10 02:37:57;;;;;;;13.07;9.07;;;1.20;99.90;;;;;;5050388;28;20212;-52
2022/03/10 02:40:27;;;;;;;12.87;9.43;;;1.10;99.90;;;;;;5049989;28;20203;-52
2022/03/10 02:42:55;;;;;;;13.70;9.50;;;1.10;99.90;;;;;;5049607;28;20635;-52
2022/03/10 02:45:24;;;;;;;14.00;9.53;;;1.10;99.90;;;;;;5050669;28;20229;-52
2022/03/10 02:47:52;;;;;;;14.83;9.33;;;1.00;99.90;;;;;;5050273;28;20643;-51
2022/03/10 02:50:23;;;;;;;13.87;9.53;;;1.00;99.90;;;;;;5050638;28;20204;-52
2022/03/10 02:52:52;;;;;;;14.80;10.00;;;1.00;99.90;;;;;;5054420;28;20239;-52
2022/03/10 02:55:20;;;;;;;12.93;9.40;;;0.90;99.90;;;;;;5050376;28;20277;-52
2022/03/10 02:57:50;;;;;;;15.60;10.40;;;0.90;99.90;;;;;;5050044;28;20675;-52
2022/03/10 03:00:19;;;;;;;15.50;10.07;;;0.90;99.90;;;;;;5050534;28;20208;-52
2022/03/10 03:02:47;;;;;;;14.93;9.70;;;0.90;99.90;;;;;;5050078;28;20208;-52
2022/03/10 03:05:16;;;;;;;14.60;10.37;;;0.90;99.90;;;;;;5050057;28;20746;-52
2022/03/10 03:07:45;;;;;;;13.73;10.10;;;1.00;99.90;;;;;;5051931;28;20212;-52
2022/03/10 03:10:13;;;;;;;15.67;10.40;;;1.00;99.90;;;;;;5069170;28;20231;-52
2022/03/10 03:12:46;;;;;;;16.40;10.63;;;1.00;99.90;;;;;;5053209;28;20196;-52
2022/03/10 03:15:16;;;;;;;16.57;10.40;;;0.90;99.90;;;;;;5052465;28;20257;-52
2022/03/10 03:17:47;;;;;;;14.33;9.90;;;0.80;99.90;;;;;;5053925;28;20203;-52
2022/03/10 03:20:15;;;;;;;16.23;9.70;;;0.80;99.90;;;;;;5054144;28;20740;-52
2022/03/10 03:22:45;;;;;;;16.20;10.23;;;0.80;99.90;;;;;;5053718;28;20203;-52
2022/03/10 03:25:15;;;;;;;15.93;9.60;;;0.80;99.90;;;;;;5054140;28;20257;-52
2022/03/10 03:27:45;;;;;;;17.17;10.10;;;0.80;99.90;;;;;;5053345;28;20195;-52
2022/03/10 03:30:15;;;;;;;16.20;10.27;;;0.80;99.90;;;;;;5054191;28;20204;-52
2022/03/10 03:32:43;;;;;;;16.83;10.80;;;0.70;99.90;;;;;;5053145;28;20211;-52
2022/03/10 03:35:11;;;;;;;15.13;10.13;;;0.80;99.90;;;;;;5053863;28;20354;-52
2022/03/10 03:37:39;;;;;;;16.03;10.50;;;0.80;99.90;;;;;;5053282;28;20228;-51
2022/03/10 03:40:09;;;;;;;13.80;10.17;;;0.70;99.90;;;;;;5053546;28;20208;-52
2022/03/10 03:42:37;;;;;;;14.83;10.27;;;0.60;99.90;;;;;;5052780;28;20711;-52
2022/03/10 03:45:09;;;;;;;15.17;10.33;;;0.60;99.90;;;;;;5053433;28;20234;-52
2022/03/10 03:47:39;;;;;;;13.93;10.40;;;0.60;99.90;;;;;;5053523;28;20733;-53
2022/03/10 03:50:07;;;;;;;16.40;11.00;;;0.50;99.90;;;;;;5053265;28;20259;-52
2022/03/10 03:52:36;;;;;;;17.17;11.37;;;0.40;99.90;;;;;;5052750;28;20548;-52
2022/03/10 03:55:09;;;;;;;15.30;10.37;;;0.40;99.90;;;;;;5052669;28;20239;-52
2022/03/10 03:57:37;;;;;;;15.77;10.40;;;0.40;99.90;;;;;;5053348;28;20211;-52
2022/03/10 04:00:07;;;;;;;13.93;9.83;;;0.50;99.90;;;;;;5053084;28;20711;-52
2022/03/10 04:02:36;;;;;;;16.17;10.73;;;0.50;99.90;;;;;;5053072;28;20208;-52
2022/03/10 04:05:07;;;;;;;18.27;10.23;;;0.50;99.90;;;;;;5052671;28;20284;-52
2022/03/10 04:07:35;;;;;;;15.43;10.70;;;0.50;99.90;;;;;;5052403;28;20271;-52
2022/03/10 04:10:04;;;;;;;15.50;10.20;;;0.40;99.90;;;;;;5052973;28;20732;-52
2022/03/10 04:12:32;;;;;;;17.77;10.60;;;0.40;99.90;;;;;;5060521;28;20237;-52
2022/03/10 04:15:01;;;;;;;18.13;10.57;;;0.30;99.90;;;;;;5072035;28;20280;-52
2022/03/10 04:17:29;;;;;;;16.53;10.83;;;0.40;99.90;;;;;;5072490;28;20681;-52
2022/03/10 04:19:57;;;;;;;16.07;9.93;;;0.30;99.90;;;;;;5072765;28;20208;-52
2022/03/10 04:22:27;;;;;;;15.17;9.60;;;0.40;99.90;;;;;;5072332;28;20211;-52
2022/03/10 04:24:55;;;;;;;16.57;10.43;;;0.40;99.90;;;;;;5072665;28;20655;-52
2022/03/10 04:27:23;;;;;;;16.13;10.77;;;0.40;99.90;;;;;;5072828;28;20616;-52
2022/03/10 04:29:51;;;;;;;16.30;10.27;;;0.50;99.90;;;;;;5072298;28;20210;-52
2022/03/10 04:32:21;;;;;;;15.63;10.60;;;0.40;99.90;;;;;;5072604;28;20278;-52
2022/03/10 04:34:49;;;;;;;14.17;10.43;;;0.40;99.90;;;;;;5071941;28;20275;-52
2022/03/10 04:37:17;;;;;;;16.83;10.70;;;0.40;99.90;;;;;;5072541;28;20262;-52
2022/03/10 04:39:47;;;;;;;17.83;10.70;;;0.40;99.90;;;;;;5072618;28;20252;-52
2022/03/10 04:42:15;;;;;;;16.40;10.60;;;0.30;99.90;;;;;;5071808;28;20620;-52
2022/03/10 04:44:43;;;;;;;17.63;10.63;;;0.30;99.90;;;;;;5072100;28;20270;-52
2022/03/10 04:47:11;;;;;;;17.47;10.80;;;0.20;99.90;;;;;;5060697;28;20253;-52
2022/03/10 04:49:39;;;;;;;17.83;10.63;;;0.20;99.90;;;;;;5051831;28;20589;-52
2022/03/10 04:52:07;;;;;;;17.63;11.10;;;0.20;99.90;;;;;;5051973;28;20606;-52
2022/03/10 04:54:36;;;;;;;16.73;10.63;;;0.20;99.90;;;;;;5052387;28;20316;-52
2022/03/10 04:57:05;;;;;;;16.90;10.50;;;0.10;99.90;;;;;;5052046;28;20207;-51
2022/03/10 04:59:33;;;;;;;16.40;10.63;;;0.10;99.90;;;;;;5052849;28;20262;-52
2022/03/10 05:02:01;;;;;;;15.23;10.90;;;0.10;99.90;;;;;;5052878;28;20210;-50
2022/03/10 05:04:32;;;;;;;15.33;10.70;;;0.20;99.90;;;;;;5052830;28;20320;-50
2022/03/10 05:07:00;;;;;;;15.87;11.20;;;0.10;99.90;;;;;;5053034;28;20211;-52
2022/03/10 05:09:28;;;;;;;16.60;11.33;;;0.10;99.90;;;;;;5051605;28;20273;-51
2022/03/10 05:11:56;;;;;;;19.80;12.43;;;0.10;99.90;;;;;;5051480;28;20340;-52
2022/03/10 05:14:27;;;;;;;15.37;10.47;;;0.10;99.90;;;;;;5050461;28;20601;-51
2022/03/10 05:16:55;;;;;;;19.07;11.50;;;0.10;99.90;;;;;;5072276;28;20208;-52
2022/03/10 05:19:23;;;;;;;18.33;10.53;;;0.10;99.90;;;;;;5071439;28;20255;-51
2022/03/10 05:21:52;;;;;;;19.20;11.20;;;0.10;99.90;;;;;;5072086;28;20259;-51
2022/03/10 05:24:20;;;;;;;19.33;11.30;;;0.00;99.90;;;;;;5071462;28;20262;-52
2022/03/10 05:26:48;;;;;;;18.57;11.13;;;0.00;99.90;;;;;;5072283;28;20204;-52
2022/03/10 05:29:16;;;;;;;17.00;11.23;;;0.00;99.90;;;;;;5071606;28;20252;-51
2022/03/10 05:31:52;;;;;;;14.80;10.37;;;0.00;99.90;;;;;;5070437;28;20646;-52
2022/03/10 05:34:20;;;;;;;16.97;10.83;;;-0.10;99.90;;;;;;5071301;28;20230;-51
2022/03/10 05:36:48;;;;;;;17.43;10.87;;;-0.10;99.90;;;;;;5071641;28;20197;-51
2022/03/10 05:39:16;;;;;;;20.67;11.87;;;-0.10;99.90;;;;;;5071460;28;20244;-52
2022/03/10 05:41:44;;;;;;;19.30;10.93;;;-0.10;99.90;;;;;;5070738;28;20209;-52
2022/03/10 05:44:12;;;;;;;14.50;11.13;;;-0.10;99.90;;;;;;5071132;28;20209;-52
2022/03/10 05:46:43;;;;;;;17.37;11.37;;;-0.10;99.90;;;;;;5063737;28;20280;-52
2022/03/10 05:49:12;;;;;;;15.07;10.50;;;-0.10;99.90;;;;;;5070924;28;20642;-51
2022/03/10 05:51:41;;;;;;;17.87;11.07;;;-0.10;99.90;;;;;;5065717;28;20210;-52
2022/03/10 05:54:09;;;;;;;15.93;11.30;;;0.00;99.90;;;;;;5050738;28;20284;-52
2022/03/10 05:56:37;;;;;;;17.80;11.33;;;0.00;99.90;;;;;;5050781;28;20672;-51
2022/03/10 05:59:05;;;;;;;18.33;11.40;;;0.00;99.90;;;;;;5050831;28;20625;-52
2022/03/10 06:01:34;;;;;;;16.40;11.10;;;0.00;99.90;;;;;;5051295;28;20244;-52
2022/03/10 06:04:02;;;;;;;19.67;11.73;;;0.00;99.90;;;;;;5050211;28;20694;-52
2022/03/10 06:06:37;;;;;;;20.07;11.33;;;0.00;99.90;;;;;;5051043;28;20231;-51
2022/03/10 06:09:05;;;;;;;17.47;10.83;;;0.00;99.90;;;;;;5063908;28;20231;-52
2022/03/10 06:11:33;;;;;;;16.20;10.70;;;0.00;99.90;;;;;;5070453;28;20210;-52
2022/03/10 06:14:01;;;;;;;18.47;11.87;;;-0.10;99.90;;;;;;5053346;28;20761;-52
2022/03/10 06:16:29;;;;;;;16.73;11.87;;;0.00;99.90;;;;;;5050558;28;20215;-52
2022/03/10 06:18:58;;;;;;;19.37;12.33;;;-0.10;99.90;;;;;;5050619;28;20202;-52
2022/03/10 06:21:26;;;;;;;19.83;12.40;;;-0.10;99.90;;;;;;5050264;28;20633;-52
2022/03/10 06:23:56;;;;;;;16.60;11.13;;;-0.10;99.90;;;;;;5050544;28;20633;-51
2022/03/10 06:26:24;;;;;;;19.63;12.87;;;-0.10;99.90;;;;;;5050395;28;20237;-52
2022/03/10 06:28:52;;;;;;;20.00;12.30;;;0.00;99.90;;;;;;5050810;28;20358;-51
2022/03/10 06:31:22;;;;;;;21.87;13.00;;;0.00;99.90;;;;;;5050521;28;20575;-51
2022/03/10 06:33:50;;;;;;;17.17;12.17;;;0.00;99.90;;;;;;5049696;28;20211;-52
2022/03/10 06:36:19;;;;;;;19.57;12.00;;;0.10;99.90;;;;;;5050613;28;20234;-52
2022/03/10 06:38:47;;;;;;;19.20;12.10;;;0.30;99.90;;;;;;5050671;28;20207;-52
2022/03/10 06:41:16;;;;;;;18.03;11.70;;;0.50;99.90;;;;;;5050783;28;20204;-52
2022/03/10 06:43:44;;;;;;;17.50;12.17;;;0.80;99.90;;;;;;5052302;28;20216;-52
2022/03/10 06:46:15;;;;;;;17.70;12.17;;;1.10;99.90;;;;;;5046863;28;20231;-52
2022/03/10 06:48:43;;;;;;;18.50;11.57;;;1.30;99.90;;;;;;5043984;28;20312;-52
2022/03/10 06:51:11;;;;;;;17.50;11.70;;;1.50;99.90;;;;;;5054142;28;20212;-52
2022/03/10 06:53:39;;;;;;;19.20;11.60;;;1.90;99.90;;;;;;5053894;28;20217;-52
2022/03/10 06:56:08;;;;;;;18.07;11.87;;;2.30;99.90;;;;;;5054206;28;20230;-52
2022/03/10 06:58:40;;;;;;;16.77;12.30;;;2.60;99.90;;;;;;5054113;28;20670;-51
2022/03/10 07:01:08;;;;;;;16.33;11.70;;;2.80;99.90;;;;;;5054299;28;20257;-51
2022/03/10 07:03:36;;;;;;;18.30;11.80;;;3.00;99.90;;;;;;5053892;28;20206;-52
2022/03/10 07:06:04;;;;;;;16.93;11.77;;;3.30;99.90;;;;;;5052861;28;20696;-51
2022/03/10 07:08:32;;;;;;;19.67;11.97;;;3.50;99.90;;;;;;5053819;28;20250;-51
2022/03/10 07:11:00;;;;;;;15.43;11.90;;;3.60;99.90;;;;;;5055614;28;20204;-51
2022/03/10 07:13:29;;;;;;;14.80;11.77;;;3.60;99.90;;;;;;5073490;28;20211;-51
2022/03/10 07:15:58;;;;;;;16.30;12.30;;;3.70;99.90;;;;;;5074412;28;20247;-51
2022/03/10 07:18:26;;;;;;;15.10;11.43;;;3.80;99.90;;;;;;5073654;28;20212;-51
2022/03/10 07:20:54;;;;;;;20.03;13.47;;;3.90;99.90;;;;;;5074020;28;20635;-51
2022/03/10 07:23:23;;;;;;;17.30;13.37;;;4.00;99.90;;;;;;5071383;28;20253;-51
2022/03/10 07:25:51;;;;;;;18.90;12.90;;;4.10;99.90;;;;;;5054086;28;20299;-51
2022/03/10 07:28:19;;;;;;;21.57;13.63;;;4.20;99.90;;;;;;5053495;28;20249;-51
2022/03/10 07:30:47;;;;;;;17.77;12.53;;;4.40;99.90;;;;;;5053655;28;20229;-51
2022/03/10 07:33:16;;;;;;;18.17;12.90;;;4.60;99.90;;;;;;5053381;28;20275;-52
2022/03/10 07:35:45;;;;;;;17.50;12.57;;;4.80;99.90;;;;;;5053591;28;20281;-52
2022/03/10 07:38:13;;;;;;;18.80;13.00;;;5.00;99.90;;;;;;5040752;28;20244;-52
2022/03/10 07:40:41;;;;;;;16.80;12.33;;;5.20;99.90;;;;;;5052353;28;20271;-52
2022/03/10 07:43:09;;;;;;;16.70;12.73;;;5.40;99.90;;;;;;5044112;28;20242;-52
2022/03/10 07:45:37;;;;;;;18.70;13.07;;;5.60;99.90;;;;;;5051064;28;20288;-52
2022/03/10 07:48:06;;;;;;;15.00;11.53;;;5.70;99.90;;;;;;5052673;28;20241;-52
2022/03/10 07:50:35;;;;;;;16.57;12.73;;;5.80;99.90;;;;;;5052534;28;20212;-52
2022/03/10 07:53:04;;;;;;;15.50;12.67;;;6.00;99.90;;;;;;5052875;28;20256;-52
2022/03/10 07:55:32;;;;;;;16.10;12.27;;;6.10;99.90;;;;;;5051549;28;20292;-51
2022/03/10 07:58:00;;;;;;;17.00;13.03;;;6.10;99.90;;;;;;5053096;28;20338;-52
2022/03/10 08:00:29;;;;;;;16.47;12.70;;;6.20;99.90;;;;;;5053834;28;20205;-50
2022/03/10 08:03:06;;;;;;;17.73;13.33;;;6.30;99.90;;;;;;5053069;28;20240;-51
2022/03/10 08:05:50;;;;;;;16.73;12.03;;;6.30;99.90;;;;;;5053409;28;20233;-52
2022/03/10 08:08:27;;;;;;;15.13;11.40;;;6.10;99.90;;;;;;5060678;28;20193;-52
2022/03/10 08:10:55;;;;;;;14.10;11.03;;;6.00;99.90;;;;;;5072962;28;20209;-52
2022/03/10 08:13:26;;;;;;;17.10;11.93;;;6.00;99.90;;;;;;5072869;28;20201;-55
2022/03/10 08:16:00;;;;;;;14.73;11.60;;;5.90;99.90;;;;;;5073108;28;20226;-52
2022/03/10 08:18:31;;;;;;;16.27;12.17;;;5.90;99.90;;;;;;5072959;28;20800;-52
2022/03/10 08:21:11;;;;;;;15.93;11.53;;;5.90;99.90;;;;;;5072157;28;20212;-52
2022/03/10 08:23:39;;;;;;;14.57;11.50;;;5.90;99.90;;;;;;5072822;28;20203;-52
2022/03/10 08:26:08;;;;;;;14.37;11.63;;;6.00;99.90;;;;;;5072373;28;20233;-52
2022/03/10 08:28:36;;;;;;;15.77;11.83;;;6.00;99.90;;;;;;5062918;28;20255;-52
2022/03/10 08:31:05;;;;;;;17.00;11.83;;;6.10;99.90;;;;;;5040127;28;20645;-52
2022/03/10 08:33:33;;;;;;;17.40;11.77;;;6.20;99.90;;;;;;5038912;28;20240;-52
2022/03/10 08:36:03;;;;;;;17.33;12.13;;;6.20;99.90;;;;;;5051954;28;20792;-52
2022/03/10 08:38:32;;;;;;;17.00;11.47;;;6.30;99.90;;;;;;5051766;28;20205;-52
2022/03/10 08:41:00;;;;;;;15.60;12.13;;;6.40;99.90;;;;;;5051368;28;20213;-52
2022/03/10 08:43:31;;;;;;;17.37;12.33;;;6.50;99.90;;;;;;5048563;28;20659;-52
2022/03/10 08:46:01;;;;;;;17.17;11.93;;;6.50;99.90;;;;;;5052014;28;20640;-52
2022/03/10 08:48:31;;;;;;;21.67;12.90;;;6.60;99.90;;;;;;5048082;28;20215;-52
2022/03/10 08:51:00;;;;;;;19.97;13.07;;;6.60;99.90;;;;;;5050324;28;20212;-52
2022/03/10 08:53:28;;;;;;;20.70;13.03;;;6.70;99.90;;;;;;5030272;28;20255;-52
2022/03/10 08:55:58;;;;;;;18.30;12.83;;;6.80;99.90;;;;;;5031323;28;20226;-52
2022/03/10 08:58:26;;;;;;;21.30;13.30;;;6.80;99.90;;;;;;5031939;28;20820;-52
2022/03/10 09:00:55;;;;;;;19.70;13.50;;;6.90;99.90;;;;;;5033961;28;20208;-52
2022/03/10 09:03:44;;;;;;;18.87;13.37;;;7.00;99.90;;;;;;5051223;28;20208;-52
2022/03/10 09:06:13;;;;;;;17.33;12.40;;;7.00;99.90;;;;;;5050876;28;20236;-52
2022/03/10 09:08:44;;;;;;;16.60;12.57;;;7.10;99.90;;;;;;5060902;28;20246;-52
2022/03/10 09:11:14;;;;;;;17.33;12.87;;;7.20;99.90;;;;;;5071318;28;20665;-52
2022/03/10 09:13:48;;;;;;;17.73;13.17;;;7.20;99.90;;;;;;5070936;28;20188;-52
2022/03/10 09:16:16;;;;;;;19.73;12.50;;;7.30;99.90;;;;;;5071942;28;20233;-52
2022/03/10 09:18:45;;;;;;;17.40;12.43;;;7.30;99.90;;;;;;5071493;28;20660;-52
2022/03/10 09:21:14;;;;;;;18.53;13.10;;;7.40;99.90;;;;;;5071718;28;20205;-52
2022/03/10 09:23:43;;;;;;;17.43;12.77;;;7.50;99.90;;;;;;5070605;28;20574;-52
2022/03/10 09:26:13;;;;;;;19.10;12.43;;;7.50;99.90;;;;;;5069204;28;20382;-52
2022/03/10 09:28:49;;;;;;;17.70;12.40;;;7.60;99.90;;;;;;5149825;27;20576;-51
2022/03/10 09:31:17;;;;;;;16.63;12.13;;;7.70;99.90;;;;;;5149896;27;20764;-50
2022/03/10 09:33:46;;;;;;;16.33;12.70;;;7.80;99.90;;;;;;5149304;27;20212;-51
2022/03/10 09:36:15;;;;;;;16.67;12.47;;;7.90;99.90;;;;;;5149122;27;20222;-51
2022/03/10 09:38:43;;;;;;;17.43;12.33;;;8.00;99.90;;;;;;5138926;27;20635;-51
2022/03/10 09:41:12;;;;;;;15.50;12.20;;;8.20;99.90;;;;;;5128576;27;20207;-51
2022/03/10 09:43:40;;;;;;;17.00;12.20;;;8.30;99.90;;;;;;5128386;27;20675;-51
2022/03/10 09:46:10;;;;;;;17.27;12.37;;;8.30;99.90;;;;;;5129034;27;20295;-51
2022/03/10 09:48:39;;;;;;;14.30;11.43;;;8.40;99.90;;;;;;5127805;27;20264;-51
2022/03/10 09:51:08;;;;;;;16.03;11.33;;;8.50;99.90;;;;;;5129105;27;20261;-51
2022/03/10 09:53:38;;;;;;;13.80;10.60;;;8.60;99.90;;;;;;5126649;27;20313;-51
2022/03/10 09:56:07;;;;;;;13.17;10.23;;;8.80;99.90;;;;;;5128258;27;20707;-51
2022/03/10 09:58:35;;;;;;;13.60;9.93;;;8.90;99.70;;;;;;5128731;27;20203;-51
2022/03/10 10:01:06;;;;;;;13.20;10.03;;;9.00;98.90;;;;;;5127075;27;20256;-51
2022/03/10 10:03:37;;;;;;;13.00;10.27;;;9.10;97.20;;;;;;5127489;27;20207;-51
2022/03/10 10:06:06;;;;;;;15.33;10.80;;;9.10;96.50;;;;;;5135749;27;20242;-51
2022/03/10 10:08:38;;;;;;;18.07;11.03;;;9.20;96.90;;;;;;5136513;27;20245;-51
2022/03/10 10:11:07;;;;;;;13.93;11.07;;;9.30;96.30;;;;;;5148912;27;20183;-51
2022/03/10 10:13:37;;;;;;;15.30;11.57;;;9.30;96.00;;;;;;5148438;27;20901;-51
2022/03/10 10:16:07;;;;;;;13.83;10.17;;;9.30;96.00;;;;;;5143577;27;20226;-51
2022/03/10 10:18:38;;;;;;;14.00;10.70;;;9.40;96.40;;;;;;5127895;27;20207;-51
2022/03/10 10:21:18;;;;;;;12.23;9.73;;;9.50;95.20;;;;;;5126238;27;20765;-51
2022/03/10 10:23:47;;;;;;;14.00;10.83;;;9.60;96.10;;;;;;5127448;27;20214;-51
2022/03/10 10:26:15;;;;;;;15.13;9.97;;;9.60;95.90;;;;;;5128039;27;20719;-51
2022/03/10 10:28:48;;;;;;;14.83;10.27;;;9.70;95.10;;;;;;5127583;27;20229;-51
2022/03/10 10:31:17;;;;;;;14.80;10.43;;;9.90;93.30;;;;;;5128022;27;20210;-51
2022/03/10 10:33:59;;;;;;;12.10;10.10;;;9.90;93.80;;;;;;5136851;27;20206;-51
2022/03/10 10:36:28;;;;;;;12.53;9.97;;;9.90;93.50;;;;;;5148886;27;20221;-51
2022/03/10 10:38:58;;;;;;;14.80;10.33;;;9.90;92.90;;;;;;5128356;27;20267;-51
2022/03/10 10:41:28;;;;;;;12.40;9.63;;;10.00;93.30;;;;;;5134631;27;20206;-52
2022/03/10 10:43:58;;;;;;;13.50;9.47;;;10.00;92.30;;;;;;5117084;27;20200;-51
2022/03/10 10:46:32;;;;;;;14.73;9.33;;;10.10;91.80;;;;;;5130447;27;20237;-51
2022/03/10 10:49:04;;;;;;;13.33;9.77;;;10.30;91.00;;;;;;5123018;27;20226;-51
2022/03/10 10:51:35;;;;;;;12.67;9.83;;;10.30;90.80;;;;;;5114172;28;20244;-51
2022/03/10 10:54:06;;;;;;;15.30;9.33;;;10.30;91.50;;;;;;5113555;28;20628;-51
2022/03/10 10:56:36;;;;;;;12.70;9.60;;;10.30;90.60;;;;;;5111717;28;20188;-51
2022/03/10 10:59:04;;;;;;;11.23;9.27;;;10.40;90.50;;;;;;5113792;28;20261;-53
2022/03/10 11:01:36;;;;;;;12.57;10.27;;;10.40;90.60;;;;;;5114446;28;20210;-50
2022/03/10 11:04:06;;;;;;;12.23;9.50;;;10.40;92.00;;;;;;5113256;28;20664;-52
2022/03/10 11:06:35;;;;;;;13.83;9.90;;;10.40;92.80;;;;;;5113821;28;20194;-52
2022/03/10 11:09:07;;;;;;;15.47;10.53;;;10.50;92.40;;;;;;5125716;27;20761;-52
2022/03/10 11:11:37;;;;;;;12.73;10.35;;;10.50;92.50;;;;;;5119588;27;20522;-51
2022/03/10 11:14:05;;;;;;;15.30;9.93;;;10.50;92.70;;;;;;5113591;28;20595;-52
2022/03/10 11:16:33;;;;;;;12.33;10.40;;;10.60;92.70;;;;;;5126256;27;20282;-52
2022/03/10 11:19:03;;;;;;;13.57;10.17;;;10.60;93.30;;;;;;5134438;27;20195;-52
2022/03/10 11:22:04;;;;;;;11.93;10.17;;;10.70;93.10;;;;;;5133562;27;20234;-52
2022/03/10 11:25:00;;;;;;;14.63;9.90;;;10.70;93.00;;;;;;5154806;27;20348;-52
2022/03/10 11:27:32;;;;;;;14.43;10.47;;;10.70;91.50;;;;;;5154581;27;20574;-51
2022/03/10 11:30:03;;;;;;;14.37;10.53;;;10.70;91.50;;;;;;5154269;27;20209;-52
2022/03/10 11:32:32;;;;;;;11.83;9.77;;;10.80;92.80;;;;;;5153732;27;20645;-52
2022/03/10 11:35:01;;;;;;;16.00;11.07;;;10.80;92.90;;;;;;5154342;27;20261;-52
2022/03/10 11:37:48;;;;;;;13.70;10.47;;;10.80;92.20;;;;;;5149648;27;20244;-52
2022/03/10 11:40:18;;;;;;;13.57;10.27;;;10.90;92.10;;;;;;5133620;27;20241;-52
2022/03/10 11:42:46;;;;;;;16.07;11.33;;;11.00;93.10;;;;;;5133061;27;20202;-52
2022/03/10 11:45:18;;;;;;;14.43;10.43;;;11.00;93.20;;;;;;5153322;27;20710;-52
2022/03/10 11:47:48;;;;;;;13.23;10.30;;;11.00;92.90;;;;;;5153960;27;20248;-52
2022/03/10 11:50:34;;;;;;;14.23;10.67;;;11.00;92.90;;;;;;5153082;27;20527;-52
2022/03/10 11:53:05;;;;;;;13.93;10.83;;;11.00;91.50;;;;;;5154133;27;20209;-52
2022/03/10 11:55:42;;;;;;;11.37;9.97;;;11.10;92.80;;;;;;5148948;27;20226;-52
2022/03/10 11:58:12;;;;;;;14.50;10.27;;;11.10;92.90;;;;;;5139186;27;20202;-51
2022/03/10 12:00:52;;;;;;;12.57;9.60;;;11.10;91.80;;;;;;5153547;27;20623;-52
2022/03/10 12:03:30;;;;;;;14.30;10.70;;;11.20;93.20;;;;;;5146872;27;20270;-51
2022/03/10 12:06:00;;;;;;;15.87;10.63;;;11.20;92.80;;;;;;5132468;27;20255;-52
2022/03/10 12:08:32;;;;;;;14.00;11.00;;;11.20;92.20;;;;;;5148967;27;20438;-54
2022/03/10 12:11:02;;;;;;;14.13;9.80;;;11.20;92.50;;;;;;5164754;27;20217;-52
2022/03/10 12:13:33;;;;;;;13.13;9.53;;;11.30;91.60;;;;;;5136112;27;20210;-52
2022/03/10 12:16:01;;;;;;;13.30;9.80;;;11.40;92.60;;;;;;5141247;27;20253;-52
2022/03/10 12:18:46;;;;;;;17.43;10.70;;;11.40;91.50;;;;;;5145760;27;20199;-52
2022/03/10 12:21:23;;;;;;;12.90;9.27;;;11.40;92.00;;;;;;5130920;27;20206;-52
2022/03/10 12:23:57;;;;;;;13.13;9.63;;;11.40;90.60;;;;;;5131835;27;20207;-52
2022/03/10 12:26:27;;;;;;;13.57;10.53;;;11.40;91.50;;;;;;5131949;27;20702;-52
2022/03/10 12:28:56;;;;;;;12.23;9.00;;;11.40;92.10;;;;;;5132014;27;20227;-52
2022/03/10 12:31:27;;;;;;;11.77;9.47;;;11.60;92.10;;;;;;5132502;27;20310;-52
2022/03/10 12:33:58;;;;;;;11.40;9.07;;;11.60;91.60;;;;;;5131536;27;20228;-52
2022/03/10 12:36:32;;;;;;;12.70;8.80;;;11.60;91.40;;;;;;5132476;27;20283;-52
2022/03/10 12:39:03;;;;;;;12.90;9.20;;;11.70;92.00;;;;;;5149761;27;20247;-52
2022/03/10 12:41:34;;;;;;;11.20;8.10;;;11.70;93.10;;;;;;5152191;27;20206;-51
2022/03/10 12:44:03;;;;;;;10.40;8.27;;;11.80;91.80;;;;;;5152707;27;20206;-52
2022/03/10 12:46:32;;;;;;;11.77;8.73;;;11.80;89.20;;;;;;5152877;27;20294;-52
2022/03/10 12:49:05;;;;;;;10.50;7.97;;;11.70;91.20;;;;;;5152803;27;20712;-51
2022/03/10 12:51:35;;;;;;;9.97;6.87;;;11.80;90.50;;;;;;5133798;27;20206;-51
2022/03/10 12:54:06;;;;;;;8.67;6.40;;;11.90;90.30;;;;;;5152400;27;20202;-51
2022/03/10 12:56:48;;;;;;;10.23;7.23;;;11.90;89.10;;;;;;5152836;27;20187;-51